Hlavní strana
METAR-TAF:

METAR-TAF

Letiště :

Laurinburg-Maxton Airport

Maxton, Severní Karolína, Spojené státy americké

zeměpisná šířka: 34-47-29N, zeměpisná délka: 079-22-05W, výška: 67 m

Aktuální stav počasí

Zpráva byla vytvořena před 21 minutami, v 20:52 UTC
Západojihozápadní vítr 8 kt
Teplota 29°C
Vlhkost vzduchu 33%
Tlak 1015 hPa
Viditelnost: 16.1 km
Skoro jasno ve výšce 8500 ft

METAR: KMEB 062052Z AUTO 25008KT 10SM FEW085 29/11 A2997 RMK AO2 LTG DSNT S SLP145 T02890106 56022

Čas: 17:13 (21:13 UTC)


TAF: chybějící

Stav a předpovědi počasí z více než 4 000 letišť (zprávy METAR a TAF).

Červené a žluté tečky na mapě představují dostupné meteorologické stanice.

Když kurzor umístíte na tečku, zobrazí se název stanice.

Pak kliknutím zobrazíte stav a předpověď počasí.

Chcete-li změnit mapu, kliknutím na zelené tlačítko se znaménkem +mapu přiblížíte, kliknutím na zelené tlačítko se znaménkem – mapu oddálíte a kliknutím na zelené šipky přejdete na sousední mapy.


METAR-TAF: